Terminal Aerodrome Forecast
Issued by NWS Paducah, KY

Home | Current Version | Previous Version | Text Only | Print | Product List | Glossary On
Versions: 1 2 3 4 5 6 7 8 9 10 11 12 13 14 15 16
000
FTUS43 KPAH 110520
TAFEVV
TAF
KEVV 110520Z 1106/1206 VRB04KT P6SM SCT250
     FM111400 20007KT P6SM SCT100
     FM111800 22013G21KT P6SM BKN250
     FM120000 27012G19KT P6SM SCT025
     FM120400 30012KT P6SM BKN025=

USA.gov is the U.S. government's official web portal to all federal, state and local government web resources and services.